sensor_id;sensor_type;location;lat;lon;timestamp;pressure;altitude;pressure_sealevel;temperature;humidity
6615;BME280;3343;42.896;23.912;2023-02-22T00:00:14;96510.38;;;9.31;62.54
6615;BME280;3343;42.896;23.912;2023-02-22T00:02:48;96506.50;;;9.26;61.88
6615;BME280;3343;42.896;23.912;2023-02-22T00:05:15;96509.38;;;10.05;58.71
6615;BME280;3343;42.896;23.912;2023-02-22T00:07:45;96502.31;;;9.91;59.28
6615;BME280;3343;42.896;23.912;2023-02-22T00:10:13;96503.41;;;9.23;61.82
6615;BME280;3343;42.896;23.912;2023-02-22T00:12:41;96506.59;;;9.77;59.82
6615;BME280;3343;42.896;23.912;2023-02-22T00:15:09;96503.19;;;10.13;57.80
6615;BME280;3343;42.896;23.912;2023-02-22T00:17:38;96506.44;;;10.15;57.18
6615;BME280;3343;42.896;23.912;2023-02-22T00:20:06;96505.72;;;10.21;56.92
6615;BME280;3343;42.896;23.912;2023-02-22T00:22:34;96503.88;;;9.71;58.73
6615;BME280;3343;42.896;23.912;2023-02-22T00:25:02;96499.28;;;10.24;56.60
6615;BME280;3343;42.896;23.912;2023-02-22T00:27:29;96502.88;;;10.37;55.57
6615;BME280;3343;42.896;23.912;2023-02-22T00:29:57;96497.94;;;10.49;55.56
6615;BME280;3343;42.896;23.912;2023-02-22T00:32:24;96496.97;;;9.99;57.13
6615;BME280;3343;42.896;23.912;2023-02-22T00:34:51;96498.00;;;10.19;56.93
6615;BME280;3343;42.896;23.912;2023-02-22T00:37:19;96474.81;;;10.08;56.77
6615;BME280;3343;42.896;23.912;2023-02-22T00:39:46;96491.16;;;10.40;55.10
6615;BME280;3343;42.896;23.912;2023-02-22T00:42:13;96488.53;;;10.04;56.65
6615;BME280;3343;42.896;23.912;2023-02-22T00:44:40;96486.78;;;9.60;58.59
6615;BME280;3343;42.896;23.912;2023-02-22T00:47:09;96460.59;;;9.22;60.66
6615;BME280;3343;42.896;23.912;2023-02-22T00:49:36;96472.91;;;9.66;58.95
6615;BME280;3343;42.896;23.912;2023-02-22T00:52:04;96468.56;;;9.58;59.13
6615;BME280;3343;42.896;23.912;2023-02-22T00:54:32;96469.81;;;9.33;60.62
6615;BME280;3343;42.896;23.912;2023-02-22T00:56:59;96465.25;;;9.86;58.14
6615;BME280;3343;42.896;23.912;2023-02-22T00:59:26;96468.75;;;10.08;56.85
6615;BME280;3343;42.896;23.912;2023-02-22T01:01:52;96471.13;;;10.03;57.11
6615;BME280;3343;42.896;23.912;2023-02-22T01:04:21;96465.56;;;9.62;59.25
6615;BME280;3343;42.896;23.912;2023-02-22T01:06:47;96462.97;;;9.98;57.01
6615;BME280;3343;42.896;23.912;2023-02-22T01:09:14;96463.81;;;10.19;55.72
6615;BME280;3343;42.896;23.912;2023-02-22T01:11:41;96449.50;;;10.22;54.76
6615;BME280;3343;42.896;23.912;2023-02-22T01:14:09;96465.47;;;10.06;55.50
6615;BME280;3343;42.896;23.912;2023-02-22T01:16:36;96459.22;;;9.71;57.09
6615;BME280;3343;42.896;23.912;2023-02-22T01:19:03;96459.94;;;9.50;58.94
6615;BME280;3343;42.896;23.912;2023-02-22T01:21:32;96449.34;;;9.43;58.60
6615;BME280;3343;42.896;23.912;2023-02-22T01:23:58;96451.59;;;8.87;61.25
6615;BME280;3343;42.896;23.912;2023-02-22T01:26:25;96457.28;;;8.91;62.03
6615;BME280;3343;42.896;23.912;2023-02-22T01:28:52;96455.97;;;9.24;59.88
6615;BME280;3343;42.896;23.912;2023-02-22T01:31:19;96451.25;;;9.64;57.80
6615;BME280;3343;42.896;23.912;2023-02-22T01:33:48;96441.47;;;9.73;56.65
6615;BME280;3343;42.896;23.912;2023-02-22T01:36:16;96452.16;;;9.27;59.07
6615;BME280;3343;42.896;23.912;2023-02-22T01:38:45;96457.31;;;9.06;61.11
6615;BME280;3343;42.896;23.912;2023-02-22T01:41:12;96455.28;;;8.78;61.37
6615;BME280;3343;42.896;23.912;2023-02-22T01:43:42;96461.91;;;8.89;61.01
6615;BME280;3343;42.896;23.912;2023-02-22T01:46:19;96460.06;;;8.75;61.06
6615;BME280;3343;42.896;23.912;2023-02-22T01:48:49;96470.41;;;8.91;60.86
6615;BME280;3343;42.896;23.912;2023-02-22T01:51:18;96444.91;;;9.14;59.73
6615;BME280;3343;42.896;23.912;2023-02-22T01:53:49;96453.78;;;8.61;62.00
6615;BME280;3343;42.896;23.912;2023-02-22T01:56:18;96460.47;;;8.63;62.22
6615;BME280;3343;42.896;23.912;2023-02-22T01:58:49;96459.22;;;9.12;60.89
6615;BME280;3343;42.896;23.912;2023-02-22T02:01:17;96453.25;;;9.33;59.32
6615;BME280;3343;42.896;23.912;2023-02-22T02:03:45;96460.03;;;8.98;59.78
6615;BME280;3343;42.896;23.912;2023-02-22T02:06:13;96462.00;;;8.35;62.73
6615;BME280;3343;42.896;23.912;2023-02-22T02:08:51;96457.09;;;8.78;61.61
6615;BME280;3343;42.896;23.912;2023-02-22T02:11:22;96460.13;;;9.19;59.68
6615;BME280;3343;42.896;23.912;2023-02-22T02:13:50;96460.75;;;9.21;58.95
6615;BME280;3343;42.896;23.912;2023-02-22T02:16:19;96456.88;;;9.46;57.83
6615;BME280;3343;42.896;23.912;2023-02-22T02:18:48;96457.69;;;9.32;58.86
6615;BME280;3343;42.896;23.912;2023-02-22T02:21:38;96445.56;;;9.31;58.31
6615;BME280;3343;42.896;23.912;2023-02-22T02:24:28;96449.97;;;9.45;57.87
6615;BME280;3343;42.896;23.912;2023-02-22T02:27:11;96457.13;;;9.37;58.39
6615;BME280;3343;42.896;23.912;2023-02-22T02:32:45;96448.38;;;8.40;63.34
6615;BME280;3343;42.896;23.912;2023-02-22T02:35:19;96452.13;;;8.83;61.65
6615;BME280;3343;42.896;23.912;2023-02-22T02:37:55;96442.28;;;9.29;59.23
6615;BME280;3343;42.896;23.912;2023-02-22T02:40:30;96459.50;;;9.61;57.68
6615;BME280;3343;42.896;23.912;2023-02-22T02:43:06;96450.25;;;9.50;57.87
6615;BME280;3343;42.896;23.912;2023-02-22T02:45:40;96450.06;;;8.93;60.59
6615;BME280;3343;42.896;23.912;2023-02-22T02:48:11;96451.53;;;9.40;58.17
6615;BME280;3343;42.896;23.912;2023-02-22T02:50:43;96460.94;;;9.34;58.43
6615;BME280;3343;42.896;23.912;2023-02-22T02:53:12;96453.59;;;9.44;57.61
6615;BME280;3343;42.896;23.912;2023-02-22T02:55:41;96446.63;;;9.51;56.79
6615;BME280;3343;42.896;23.912;2023-02-22T02:58:16;96459.41;;;9.69;56.36
6615;BME280;3343;42.896;23.912;2023-02-22T03:00:44;96459.13;;;9.49;56.61
6615;BME280;3343;42.896;23.912;2023-02-22T03:03:27;96450.88;;;9.52;56.65
6615;BME280;3343;42.896;23.912;2023-02-22T03:08:56;96457.75;;;8.94;59.50
6615;BME280;3343;42.896;23.912;2023-02-22T03:11:27;96466.66;;;8.71;61.12
6615;BME280;3343;42.896;23.912;2023-02-22T03:14:02;96464.09;;;9.15;58.72
6615;BME280;3343;42.896;23.912;2023-02-22T03:16:37;96466.19;;;9.05;59.29
6615;BME280;3343;42.896;23.912;2023-02-22T03:19:12;96461.63;;;8.61;61.30
6615;BME280;3343;42.896;23.912;2023-02-22T03:21:47;96458.41;;;8.05;64.30
6615;BME280;3343;42.896;23.912;2023-02-22T03:24:21;96465.72;;;7.87;65.15
6615;BME280;3343;42.896;23.912;2023-02-22T03:26:53;96465.59;;;8.11;64.71
6615;BME280;3343;42.896;23.912;2023-02-22T03:29:23;96464.28;;;8.38;63.62
6615;BME280;3343;42.896;23.912;2023-02-22T03:31:54;96461.59;;;8.46;63.54
6615;BME280;3343;42.896;23.912;2023-02-22T03:34:30;96469.53;;;8.99;60.88
6615;BME280;3343;42.896;23.912;2023-02-22T03:37:02;96460.72;;;8.91;60.50
6615;BME280;3343;42.896;23.912;2023-02-22T03:39:32;96456.84;;;9.02;60.50
6615;BME280;3343;42.896;23.912;2023-02-22T03:42:05;96460.97;;;8.67;62.14
6615;BME280;3343;42.896;23.912;2023-02-22T03:44:37;96442.69;;;8.28;63.76
6615;BME280;3343;42.896;23.912;2023-02-22T03:47:08;96464.63;;;8.58;63.39
6615;BME280;3343;42.896;23.912;2023-02-22T03:49:41;96462.88;;;8.73;62.06
6615;BME280;3343;42.896;23.912;2023-02-22T03:52:09;96455.25;;;8.41;63.14
6615;BME280;3343;42.896;23.912;2023-02-22T03:54:37;96469.38;;;8.31;63.53
6615;BME280;3343;42.896;23.912;2023-02-22T03:57:07;96464.63;;;8.35;63.11
6615;BME280;3343;42.896;23.912;2023-02-22T03:59:36;96463.56;;;8.21;64.28
6615;BME280;3343;42.896;23.912;2023-02-22T04:02:03;96461.50;;;8.09;64.16
6615;BME280;3343;42.896;23.912;2023-02-22T04:04:30;96470.25;;;8.01;64.92
6615;BME280;3343;42.896;23.912;2023-02-22T04:06:59;96468.78;;;7.98;66.03
6615;BME280;3343;42.896;23.912;2023-02-22T04:09:27;96473.75;;;8.16;64.57
6615;BME280;3343;42.896;23.912;2023-02-22T04:11:54;96470.34;;;7.77;66.42
6615;BME280;3343;42.896;23.912;2023-02-22T04:14:21;96463.19;;;7.23;69.32
6615;BME280;3343;42.896;23.912;2023-02-22T04:16:48;96461.41;;;7.24;70.42
6615;BME280;3343;42.896;23.912;2023-02-22T04:19:16;96462.13;;;7.80;68.15
6615;BME280;3343;42.896;23.912;2023-02-22T04:21:42;96466.22;;;8.13;65.29
6615;BME280;3343;42.896;23.912;2023-02-22T04:24:11;96464.38;;;8.22;64.96
6615;BME280;3343;42.896;23.912;2023-02-22T04:26:38;96474.63;;;8.09;64.68
6615;BME280;3343;42.896;23.912;2023-02-22T04:29:05;96464.13;;;8.31;63.91
6615;BME280;3343;42.896;23.912;2023-02-22T04:31:32;96463.59;;;8.13;64.18
6615;BME280;3343;42.896;23.912;2023-02-22T04:33:59;96469.88;;;7.73;67.34
6615;BME280;3343;42.896;23.912;2023-02-22T04:36:27;96464.00;;;8.02;66.07
6615;BME280;3343;42.896;23.912;2023-02-22T04:38:56;96470.31;;;8.16;65.14
6615;BME280;3343;42.896;23.912;2023-02-22T04:41:25;96468.22;;;8.57;63.22
6615;BME280;3343;42.896;23.912;2023-02-22T04:43:52;96469.16;;;8.18;64.10
6615;BME280;3343;42.896;23.912;2023-02-22T04:46:19;96472.53;;;8.27;64.29
6615;BME280;3343;42.896;23.912;2023-02-22T04:48:45;96464.13;;;7.78;67.46
6615;BME280;3343;42.896;23.912;2023-02-22T04:51:13;96463.22;;;7.62;69.91
6615;BME280;3343;42.896;23.912;2023-02-22T04:53:40;96461.34;;;8.10;66.00
6615;BME280;3343;42.896;23.912;2023-02-22T04:56:07;96460.88;;;8.29;64.40
6615;BME280;3343;42.896;23.912;2023-02-22T04:58:35;96457.28;;;8.53;63.42
6615;BME280;3343;42.896;23.912;2023-02-22T05:01:02;96458.78;;;8.48;63.00
6615;BME280;3343;42.896;23.912;2023-02-22T05:03:29;96457.06;;;8.40;63.54
6615;BME280;3343;42.896;23.912;2023-02-22T05:05:56;96462.66;;;8.06;65.98
6615;BME280;3343;42.896;23.912;2023-02-22T05:08:23;96472.53;;;8.27;64.85
6615;BME280;3343;42.896;23.912;2023-02-22T05:10:50;96467.25;;;8.35;63.64
6615;BME280;3343;42.896;23.912;2023-02-22T05:13:17;96471.03;;;7.71;67.36
6615;BME280;3343;42.896;23.912;2023-02-22T05:15:45;96474.75;;;7.37;69.62
6615;BME280;3343;42.896;23.912;2023-02-22T05:18:12;96466.41;;;7.81;67.78
6615;BME280;3343;42.896;23.912;2023-02-22T05:20:39;96473.31;;;8.05;65.93
6615;BME280;3343;42.896;23.912;2023-02-22T05:23:06;96475.16;;;8.27;64.80
6615;BME280;3343;42.896;23.912;2023-02-22T05:25:33;96465.97;;;8.00;66.03
6615;BME280;3343;42.896;23.912;2023-02-22T05:28:01;96472.75;;;8.17;65.99
6615;BME280;3343;42.896;23.912;2023-02-22T05:30:31;96483.00;;;8.04;66.44
6615;BME280;3343;42.896;23.912;2023-02-22T05:32:59;96483.25;;;8.17;65.74
6615;BME280;3343;42.896;23.912;2023-02-22T05:35:28;96473.00;;;8.30;65.56
6615;BME280;3343;42.896;23.912;2023-02-22T05:37:55;96490.34;;;8.31;65.10
6615;BME280;3343;42.896;23.912;2023-02-22T05:40:24;96490.38;;;8.54;65.02
6615;BME280;3343;42.896;23.912;2023-02-22T05:42:52;96499.66;;;9.03;62.88
6615;BME280;3343;42.896;23.912;2023-02-22T05:45:21;96505.81;;;9.62;60.26
6615;BME280;3343;42.896;23.912;2023-02-22T05:47:48;96511.31;;;10.18;57.01
6615;BME280;3343;42.896;23.912;2023-02-22T05:50:17;96508.41;;;9.92;58.38
6615;BME280;3343;42.896;23.912;2023-02-22T05:52:45;96517.38;;;10.48;56.86
6615;BME280;3343;42.896;23.912;2023-02-22T05:55:13;96508.09;;;11.51;54.01
6615;BME280;3343;42.896;23.912;2023-02-22T05:57:40;96518.88;;;11.90;51.24
6615;BME280;3343;42.896;23.912;2023-02-22T06:00:13;96520.75;;;12.03;50.32
6615;BME280;3343;42.896;23.912;2023-02-22T06:02:40;96515.84;;;11.93;51.12
6615;BME280;3343;42.896;23.912;2023-02-22T06:05:07;96525.16;;;12.43;49.23
6615;BME280;3343;42.896;23.912;2023-02-22T06:07:36;96533.38;;;12.88;46.47
6615;BME280;3343;42.896;23.912;2023-02-22T06:10:03;96536.50;;;13.25;45.33
6615;BME280;3343;42.896;23.912;2023-02-22T06:12:30;96540.34;;;13.22;46.40
6615;BME280;3343;42.896;23.912;2023-02-22T06:14:57;96534.44;;;13.47;45.83
6615;BME280;3343;42.896;23.912;2023-02-22T06:17:24;96541.91;;;13.89;44.14
6615;BME280;3343;42.896;23.912;2023-02-22T06:19:51;96543.78;;;14.33;44.05
6615;BME280;3343;42.896;23.912;2023-02-22T06:22:18;96552.44;;;14.60;42.92
6615;BME280;3343;42.896;23.912;2023-02-22T06:24:46;96552.72;;;14.84;42.85
6615;BME280;3343;42.896;23.912;2023-02-22T06:27:13;96544.03;;;15.02;41.81
6615;BME280;3343;42.896;23.912;2023-02-22T06:29:44;96558.84;;;15.66;40.71
6615;BME280;3343;42.896;23.912;2023-02-22T06:32:11;96558.56;;;15.74;39.62
6615;BME280;3343;42.896;23.912;2023-02-22T06:34:38;96554.66;;;16.31;38.72
6615;BME280;3343;42.896;23.912;2023-02-22T06:37:06;96555.13;;;16.10;38.72
6615;BME280;3343;42.896;23.912;2023-02-22T06:39:33;96564.94;;;15.91;39.01
6615;BME280;3343;42.896;23.912;2023-02-22T06:42:01;96560.78;;;16.32;39.32
6615;BME280;3343;42.896;23.912;2023-02-22T06:44:28;96558.44;;;16.90;37.43
6615;BME280;3343;42.896;23.912;2023-02-22T06:46:55;96562.63;;;16.68;37.80
6615;BME280;3343;42.896;23.912;2023-02-22T06:49:24;96564.63;;;16.36;38.31
6615;BME280;3343;42.896;23.912;2023-02-22T06:51:52;96571.13;;;15.85;39.76
6615;BME280;3343;42.896;23.912;2023-02-22T06:54:19;96563.75;;;15.87;39.88
6615;BME280;3343;42.896;23.912;2023-02-22T06:56:48;96563.22;;;16.51;39.86
6615;BME280;3343;42.896;23.912;2023-02-22T06:59:16;96562.63;;;16.31;39.09
6615;BME280;3343;42.896;23.912;2023-02-22T07:01:43;96558.53;;;16.17;39.57
6615;BME280;3343;42.896;23.912;2023-02-22T07:04:10;96567.44;;;15.86;38.18
6615;BME280;3343;42.896;23.912;2023-02-22T07:06:37;96568.19;;;15.93;38.59
6615;BME280;3343;42.896;23.912;2023-02-22T07:09:04;96565.59;;;16.60;37.46
6615;BME280;3343;42.896;23.912;2023-02-22T07:11:31;96564.13;;;16.94;36.72
6615;BME280;3343;42.896;23.912;2023-02-22T07:13:57;96567.75;;;17.11;36.14
6615;BME280;3343;42.896;23.912;2023-02-22T07:16:26;96565.41;;;17.56;35.43
6615;BME280;3343;42.896;23.912;2023-02-22T07:18:52;96566.63;;;17.30;36.00
6615;BME280;3343;42.896;23.912;2023-02-22T07:21:19;96561.47;;;17.47;35.11
6615;BME280;3343;42.896;23.912;2023-02-22T07:23:50;96560.28;;;17.31;35.62
6615;BME280;3343;42.896;23.912;2023-02-22T07:26:18;96559.66;;;16.76;37.31
6615;BME280;3343;42.896;23.912;2023-02-22T07:28:45;96560.34;;;16.71;36.20
6615;BME280;3343;42.896;23.912;2023-02-22T07:31:12;96564.13;;;16.94;36.47
6615;BME280;3343;42.896;23.912;2023-02-22T07:33:41;96556.59;;;17.44;36.38
6615;BME280;3343;42.896;23.912;2023-02-22T07:36:09;96566.81;;;17.94;34.99
6615;BME280;3343;42.896;23.912;2023-02-22T07:38:38;96568.25;;;18.48;34.46
6615;BME280;3343;42.896;23.912;2023-02-22T07:41:05;96554.31;;;18.58;34.15
6615;BME280;3343;42.896;23.912;2023-02-22T07:43:31;96536.44;;;18.18;34.79
6615;BME280;3343;42.896;23.912;2023-02-22T07:45:59;96552.31;;;18.25;35.60
6615;BME280;3343;42.896;23.912;2023-02-22T07:48:28;96560.09;;;19.40;34.17
6615;BME280;3343;42.896;23.912;2023-02-22T07:50:57;96561.69;;;20.08;33.15
6615;BME280;3343;42.896;23.912;2023-02-22T07:53:25;96562.34;;;19.31;34.33
6615;BME280;3343;42.896;23.912;2023-02-22T07:55:55;96565.09;;;18.63;34.63
6615;BME280;3343;42.896;23.912;2023-02-22T07:58:24;96558.47;;;19.22;34.61
6615;BME280;3343;42.896;23.912;2023-02-22T08:00:52;96558.63;;;19.83;33.55
6615;BME280;3343;42.896;23.912;2023-02-22T08:03:21;96556.34;;;20.95;33.40
6615;BME280;3343;42.896;23.912;2023-02-22T08:05:50;96557.13;;;21.87;31.12
6615;BME280;3343;42.896;23.912;2023-02-22T08:08:20;96554.09;;;22.10;29.49
6615;BME280;3343;42.896;23.912;2023-02-22T08:10:47;96556.13;;;21.98;29.65
6615;BME280;3343;42.896;23.912;2023-02-22T08:13:15;96553.66;;;21.86;29.80
6615;BME280;3343;42.896;23.912;2023-02-22T08:15:42;96552.59;;;21.55;30.16
6615;BME280;3343;42.896;23.912;2023-02-22T08:18:13;96553.75;;;21.65;29.78
6615;BME280;3343;42.896;23.912;2023-02-22T08:20:42;96548.44;;;22.07;30.01
6615;BME280;3343;42.896;23.912;2023-02-22T08:23:11;96547.28;;;22.45;30.10
6615;BME280;3343;42.896;23.912;2023-02-22T08:25:39;96551.41;;;22.73;29.61
6615;BME280;3343;42.896;23.912;2023-02-22T08:28:08;96540.50;;;22.95;29.29
6615;BME280;3343;42.896;23.912;2023-02-22T08:30:37;96543.75;;;23.37;29.49
6615;BME280;3343;42.896;23.912;2023-02-22T08:33:04;96546.22;;;23.64;28.18
6615;BME280;3343;42.896;23.912;2023-02-22T08:35:32;96542.72;;;23.69;28.21
6615;BME280;3343;42.896;23.912;2023-02-22T08:38:00;96538.38;;;23.27;28.70
6615;BME280;3343;42.896;23.912;2023-02-22T08:40:29;96538.31;;;22.86;28.98
6615;BME280;3343;42.896;23.912;2023-02-22T08:42:58;96533.78;;;22.24;30.50
6615;BME280;3343;42.896;23.912;2023-02-22T08:45:26;96541.88;;;22.35;29.69
6615;BME280;3343;42.896;23.912;2023-02-22T08:47:53;96529.94;;;22.05;30.20
6615;BME280;3343;42.896;23.912;2023-02-22T08:50:22;96532.25;;;21.54;31.42
6615;BME280;3343;42.896;23.912;2023-02-22T08:52:50;96527.50;;;21.29;31.58
6615;BME280;3343;42.896;23.912;2023-02-22T08:55:18;96522.84;;;21.89;31.07
6615;BME280;3343;42.896;23.912;2023-02-22T08:57:46;96522.50;;;21.75;31.61
6615;BME280;3343;42.896;23.912;2023-02-22T09:00:16;96531.41;;;21.86;31.28
6615;BME280;3343;42.896;23.912;2023-02-22T09:02:43;96514.22;;;21.77;30.85
6615;BME280;3343;42.896;23.912;2023-02-22T09:05:10;96523.84;;;21.78;30.35
6615;BME280;3343;42.896;23.912;2023-02-22T09:07:40;96526.69;;;22.61;30.04
6615;BME280;3343;42.896;23.912;2023-02-22T09:10:07;96518.84;;;22.44;30.23
6615;BME280;3343;42.896;23.912;2023-02-22T09:12:36;96516.50;;;21.63;30.77
6615;BME280;3343;42.896;23.912;2023-02-22T09:15:03;96520.56;;;20.80;31.86
6615;BME280;3343;42.896;23.912;2023-02-22T09:17:31;96515.13;;;21.55;31.70
6615;BME280;3343;42.896;23.912;2023-02-22T09:20:02;96515.88;;;21.51;31.64
6615;BME280;3343;42.896;23.912;2023-02-22T09:22:29;96508.41;;;21.53;31.07
6615;BME280;3343;42.896;23.912;2023-02-22T09:24:56;96506.75;;;21.84;31.26
6615;BME280;3343;42.896;23.912;2023-02-22T09:27:22;96514.34;;;21.60;31.09
6615;BME280;3343;42.896;23.912;2023-02-22T09:29:53;96507.63;;;20.93;31.39
6615;BME280;3343;42.896;23.912;2023-02-22T09:32:20;96507.47;;;21.37;31.29
6615;BME280;3343;42.896;23.912;2023-02-22T09:34:49;96504.03;;;21.10;31.54
6615;BME280;3343;42.896;23.912;2023-02-22T09:37:16;96501.88;;;21.76;31.05
6615;BME280;3343;42.896;23.912;2023-02-22T09:39:43;96498.09;;;22.14;30.12
6615;BME280;3343;42.896;23.912;2023-02-22T09:42:14;96500.53;;;22.25;29.40
6615;BME280;3343;42.896;23.912;2023-02-22T09:44:46;96497.09;;;21.14;30.90
6615;BME280;3343;42.896;23.912;2023-02-22T09:47:18;96491.84;;;20.92;31.78
6615;BME280;3343;42.896;23.912;2023-02-22T09:49:55;96490.25;;;20.96;31.47
6615;BME280;3343;42.896;23.912;2023-02-22T09:52:26;96482.56;;;21.05;32.63
6615;BME280;3343;42.896;23.912;2023-02-22T09:55:01;96480.88;;;21.62;30.69
6615;BME280;3343;42.896;23.912;2023-02-22T09:57:34;96481.00;;;22.30;30.08
6615;BME280;3343;42.896;23.912;2023-02-22T10:00:11;96475.66;;;22.45;30.00
6615;BME280;3343;42.896;23.912;2023-02-22T10:02:44;96478.22;;;22.98;28.98
6615;BME280;3343;42.896;23.912;2023-02-22T10:05:17;96467.69;;;21.98;29.78
6615;BME280;3343;42.896;23.912;2023-02-22T10:07:48;96474.72;;;22.87;29.10
6615;BME280;3343;42.896;23.912;2023-02-22T10:10:18;96469.56;;;22.60;29.78
6615;BME280;3343;42.896;23.912;2023-02-22T10:12:50;96466.16;;;23.46;28.79
6615;BME280;3343;42.896;23.912;2023-02-22T10:15:48;96462.91;;;23.54;27.96
6615;BME280;3343;42.896;23.912;2023-02-22T10:18:41;96459.97;;;23.40;28.36
6615;BME280;3343;42.896;23.912;2023-02-22T10:21:25;96454.06;;;23.38;28.37
6615;BME280;3343;42.896;23.912;2023-02-22T10:24:02;96447.38;;;23.15;28.85
6615;BME280;3343;42.896;23.912;2023-02-22T10:26:36;96441.69;;;22.76;28.96
6615;BME280;3343;42.896;23.912;2023-02-22T10:29:11;96418.13;;;22.99;28.08
6615;BME280;3343;42.896;23.912;2023-02-22T10:31:44;96441.16;;;23.71;28.65
6615;BME280;3343;42.896;23.912;2023-02-22T10:34:13;96428.19;;;23.88;27.35
6615;BME280;3343;42.896;23.912;2023-02-22T10:36:42;96425.34;;;23.44;27.68
6615;BME280;3343;42.896;23.912;2023-02-22T10:39:15;96421.69;;;24.04;26.61
6615;BME280;3343;42.896;23.912;2023-02-22T10:41:49;96421.31;;;23.41;27.48
6615;BME280;3343;42.896;23.912;2023-02-22T10:44:17;96406.53;;;22.68;27.60
6615;BME280;3343;42.896;23.912;2023-02-22T10:46:44;96401.44;;;22.61;27.67
6615;BME280;3343;42.896;23.912;2023-02-22T10:49:18;96401.19;;;22.68;27.85
6615;BME280;3343;42.896;23.912;2023-02-22T10:51:57;96397.41;;;23.35;28.17
6615;BME280;3343;42.896;23.912;2023-02-22T10:54:29;96397.41;;;24.20;26.86
6615;BME280;3343;42.896;23.912;2023-02-22T10:56:57;96383.91;;;24.25;25.89
6615;BME280;3343;42.896;23.912;2023-02-22T10:59:28;96384.28;;;24.62;26.42
6615;BME280;3343;42.896;23.912;2023-02-22T11:01:57;96381.66;;;24.86;25.63
6615;BME280;3343;42.896;23.912;2023-02-22T11:04:25;96367.16;;;24.48;26.42
6615;BME280;3343;42.896;23.912;2023-02-22T11:07:09;96377.41;;;24.80;25.77
6615;BME280;3343;42.896;23.912;2023-02-22T11:09:45;96375.38;;;24.96;25.79
6615;BME280;3343;42.896;23.912;2023-02-22T11:12:18;96372.50;;;23.99;25.93
6615;BME280;3343;42.896;23.912;2023-02-22T11:14:45;96375.63;;;23.46;26.47
6615;BME280;3343;42.896;23.912;2023-02-22T11:17:17;96371.75;;;23.88;26.46
6615;BME280;3343;42.896;23.912;2023-02-22T11:19:46;96356.78;;;24.21;26.71
6615;BME280;3343;42.896;23.912;2023-02-22T11:22:21;96366.16;;;24.39;25.36
6615;BME280;3343;42.896;23.912;2023-02-22T11:24:51;96357.66;;;24.11;25.72
6615;BME280;3343;42.896;23.912;2023-02-22T11:27:39;96357.34;;;24.96;25.42
6615;BME280;3343;42.896;23.912;2023-02-22T11:30:24;96351.94;;;25.01;25.42
6615;BME280;3343;42.896;23.912;2023-02-22T11:32:54;96347.47;;;25.45;24.78
6615;BME280;3343;42.896;23.912;2023-02-22T11:35:32;96347.47;;;25.92;24.56
6615;BME280;3343;42.896;23.912;2023-02-22T11:38:13;96339.78;;;25.57;24.17
6615;BME280;3343;42.896;23.912;2023-02-22T11:40:41;96344.88;;;24.76;24.81
6615;BME280;3343;42.896;23.912;2023-02-22T11:43:14;96333.47;;;23.37;26.56
6615;BME280;3343;42.896;23.912;2023-02-22T11:45:55;96326.66;;;23.80;26.25
6615;BME280;3343;42.896;23.912;2023-02-22T11:48:26;96332.03;;;24.34;25.77
6615;BME280;3343;42.896;23.912;2023-02-22T11:51:02;96325.50;;;24.40;25.52
6615;BME280;3343;42.896;23.912;2023-02-22T11:53:51;96329.75;;;24.81;25.26
6615;BME280;3343;42.896;23.912;2023-02-22T11:56:28;96315.53;;;25.57;24.81
6615;BME280;3343;42.896;23.912;2023-02-22T11:59:03;96315.81;;;23.95;25.99
6615;BME280;3343;42.896;23.912;2023-02-22T12:01:41;96312.53;;;23.34;26.43
6615;BME280;3343;42.896;23.912;2023-02-22T12:04:32;96313.69;;;23.92;26.29
6615;BME280;3343;42.896;23.912;2023-02-22T12:07:12;96309.56;;;24.49;25.31
6615;BME280;3343;42.896;23.912;2023-02-22T12:09:49;96315.34;;;25.00;24.65
6615;BME280;3343;42.896;23.912;2023-02-22T12:12:24;96305.94;;;24.35;25.71
6615;BME280;3343;42.896;23.912;2023-02-22T12:14:59;96300.72;;;23.40;26.19
6615;BME280;3343;42.896;23.912;2023-02-22T12:17:39;96302.47;;;23.75;25.99
6615;BME280;3343;42.896;23.912;2023-02-22T12:20:15;96299.78;;;23.80;26.42
6615;BME280;3343;42.896;23.912;2023-02-22T12:22:52;96300.34;;;23.72;25.96
6615;BME280;3343;42.896;23.912;2023-02-22T12:25:25;96293.81;;;24.37;25.60
6615;BME280;3343;42.896;23.912;2023-02-22T12:27:56;96295.03;;;24.50;25.45
6615;BME280;3343;42.896;23.912;2023-02-22T12:30:26;96296.91;;;24.10;25.77
6615;BME280;3343;42.896;23.912;2023-02-22T12:32:57;96289.84;;;23.75;26.47
6615;BME280;3343;42.896;23.912;2023-02-22T12:35:26;96280.25;;;23.54;26.86
6615;BME280;3343;42.896;23.912;2023-02-22T12:37:59;96277.72;;;24.22;25.84
6615;BME280;3343;42.896;23.912;2023-02-22T12:40:33;96282.84;;;23.79;26.24
6615;BME280;3343;42.896;23.912;2023-02-22T12:43:04;96273.13;;;23.19;27.38
6615;BME280;3343;42.896;23.912;2023-02-22T12:45:38;96286.53;;;23.19;26.97
6615;BME280;3343;42.896;23.912;2023-02-22T12:48:25;96279.84;;;23.86;26.30
6615;BME280;3343;42.896;23.912;2023-02-22T12:50:59;96280.78;;;24.50;25.63
6615;BME280;3343;42.896;23.912;2023-02-22T12:53:30;96281.22;;;24.91;25.07
6615;BME280;3343;42.896;23.912;2023-02-22T12:56:14;96277.38;;;24.97;24.61
6615;BME280;3343;42.896;23.912;2023-02-22T12:58:50;96276.69;;;25.15;25.02
6615;BME280;3343;42.896;23.912;2023-02-22T13:01:20;96272.22;;;25.29;24.42
6615;BME280;3343;42.896;23.912;2023-02-22T13:03:49;96262.06;;;24.68;25.14
6615;BME280;3343;42.896;23.912;2023-02-22T13:06:35;96264.63;;;25.07;24.59
6615;BME280;3343;42.896;23.912;2023-02-22T13:09:32;96260.00;;;25.13;23.99
6615;BME280;3343;42.896;23.912;2023-02-22T13:12:06;96258.56;;;25.45;24.06
6615;BME280;3343;42.896;23.912;2023-02-22T13:14:42;96255.69;;;25.60;23.25
6615;BME280;3343;42.896;23.912;2023-02-22T13:17:18;96249.00;;;24.81;24.44
6615;BME280;3343;42.896;23.912;2023-02-22T13:19:53;96257.75;;;24.67;24.58
6615;BME280;3343;42.896;23.912;2023-02-22T13:22:26;96253.00;;;25.12;24.51
6615;BME280;3343;42.896;23.912;2023-02-22T13:25:00;96250.50;;;24.39;24.80
6615;BME280;3343;42.896;23.912;2023-02-22T13:27:36;96241.25;;;24.11;25.10
6615;BME280;3343;42.896;23.912;2023-02-22T13:30:14;96241.69;;;24.86;24.80
6615;BME280;3343;42.896;23.912;2023-02-22T13:32:53;96251.84;;;24.65;24.97
6615;BME280;3343;42.896;23.912;2023-02-22T13:35:38;96241.63;;;23.94;25.36
6615;BME280;3343;42.896;23.912;2023-02-22T13:41:31;96244.91;;;23.86;25.42